Bellwood, Illinois
Current Conditions -  °F | °C
As of 8:51 AM on Thursday 23 Oct 2014 (Local Time) from KORD Reporting Station
Broken Clouds Broken Clouds  
Wind Chill:   Ceiling: 25000
Heat Index:   Visibility: 9mi
Dew Point:   Wind: 7mph
Humidity: 86%   Direction: 190°S
Pressure: 30.22"   Gusts: NA
Location:  41.88°N, 87.87°W
Report Text: KORD 231351Z 19006KT 9SM FEW190 BKN250 06/04 A3022 RMK AO2 SLP236 T00610039 $
Loading
Personal Weather Stations






























Interactive Weather Map
Tropical Storm Tracking
New forecast layout! Learn more

10-Day Weather Forecast

Advertisements
Track Severe Weather on mobile